createdAt,value
2022-10-13T15:31:12.024Z,21.09
2022-10-13T15:44:06.968Z,18.49
2022-10-13T15:46:33.377Z,17.87
2022-10-13T15:48:59.810Z,17.38
2022-10-13T15:51:29.564Z,16.98
2022-10-13T15:53:56.136Z,16.59
2022-10-13T15:56:22.987Z,16.26
2022-10-13T15:58:49.431Z,15.97
2022-10-13T16:01:15.946Z,15.71
2022-10-13T16:03:43.708Z,15.48
2022-10-13T16:06:11.719Z,15.29
2022-10-13T16:08:39.577Z,15.11
2022-10-13T16:11:15.150Z,14.97
2022-10-13T16:13:45.538Z,14.83
2022-10-13T16:16:12.580Z,14.66
2022-10-13T16:18:40.036Z,14.51
2022-10-13T16:21:17.422Z,14.39
2022-10-13T16:23:45.633Z,14.27
2022-10-13T16:26:12.257Z,14.18
2022-10-13T16:28:39.026Z,14.08
2022-10-13T16:31:08.349Z,14.00
2022-10-13T16:33:37.069Z,13.88
2022-10-13T16:36:06.282Z,13.77
2022-10-13T16:38:32.723Z,13.68
2022-10-13T16:41:06.108Z,13.56
2022-10-13T16:43:33.359Z,13.46
2022-10-13T16:46:02.991Z,13.36
2022-10-13T16:48:31.904Z,13.27
2022-10-13T16:51:00.355Z,13.20
2022-10-13T16:53:29.683Z,13.20
2022-10-13T16:55:56.350Z,13.20
2022-10-13T16:58:22.989Z,13.17
2022-10-13T17:00:49.658Z,13.14
2022-10-13T17:03:16.242Z,13.14
2022-10-13T17:05:45.281Z,13.13
2022-10-13T17:08:11.590Z,13.10
2022-10-13T17:10:37.910Z,13.08
2022-10-13T17:13:04.603Z,13.02
2022-10-13T17:15:31.532Z,12.96
2022-10-13T17:17:58.197Z,12.92
2022-10-13T17:20:24.884Z,12.86
2022-10-13T17:22:51.991Z,12.79
2022-10-13T17:25:19.288Z,12.72
2022-10-13T17:27:45.803Z,12.65
2022-10-13T17:30:12.262Z,12.56
2022-10-13T17:32:38.887Z,12.44
2022-10-13T17:35:06.324Z,12.39
2022-10-13T17:37:32.880Z,12.38
2022-10-13T17:39:59.736Z,12.36
2022-10-13T17:42:28.672Z,12.33
2022-10-13T17:44:55.466Z,12.27
2022-10-13T17:47:22.409Z,12.19
2022-10-13T17:49:49.654Z,12.13
2022-10-13T17:52:17.355Z,12.03
2022-10-13T17:54:46.000Z,11.92
2022-10-13T17:57:12.845Z,11.79
2022-10-13T17:59:39.276Z,11.68
2022-10-13T18:02:06.388Z,11.55
2022-10-13T18:04:33.590Z,11.44
2022-10-13T18:07:00.225Z,11.37
2022-10-13T18:09:26.853Z,11.36
2022-10-13T18:11:54.215Z,11.39
2022-10-13T18:14:23.507Z,11.44
2022-10-13T18:16:52.253Z,11.47
2022-10-13T18:19:20.028Z,11.53
2022-10-13T18:21:46.620Z,11.63
2022-10-13T18:24:13.441Z,11.75
2022-10-13T18:26:40.486Z,11.90
2022-10-13T18:29:09.889Z,12.05
2022-10-13T18:31:40.354Z,12.22
2022-10-13T18:34:11.035Z,12.35
2022-10-13T18:36:48.551Z,12.44
2022-10-13T18:39:16.594Z,12.50
2022-10-13T18:41:45.714Z,12.58
2022-10-13T18:44:12.761Z,12.62
2022-10-13T18:46:40.139Z,12.67
2022-10-13T18:49:09.856Z,12.72
2022-10-13T18:51:39.371Z,12.75
2022-10-13T18:54:07.500Z,12.75
2022-10-13T18:56:36.254Z,12.75
2022-10-13T18:59:04.678Z,12.74
2022-10-13T19:01:33.458Z,12.69
2022-10-13T19:04:00.707Z,12.66
2022-10-13T19:06:29.996Z,12.62
2022-10-13T19:09:02.975Z,12.61
2022-10-13T19:11:32.325Z,12.61
2022-10-13T19:14:00.289Z,12.57
2022-10-13T19:16:30.014Z,12.51
2022-10-13T19:18:58.264Z,12.44
2022-10-13T19:21:26.592Z,12.37
2022-10-13T19:23:53.476Z,12.28
2022-10-13T19:26:26.049Z,12.24
2022-10-13T19:29:04.551Z,12.21
2022-10-13T19:31:32.833Z,12.19
2022-10-13T19:34:01.548Z,12.15
2022-10-13T19:36:35.448Z,12.09
2022-10-13T19:39:06.114Z,11.97
2022-10-13T19:41:33.909Z,11.87
2022-10-13T19:44:00.881Z,11.80
2022-10-13T19:46:39.116Z,11.77
2022-10-13T19:49:06.136Z,11.75
2022-10-13T19:51:34.158Z,11.72
2022-10-13T19:54:01.574Z,11.73
2022-10-13T19:56:30.913Z,11.74
2022-10-13T19:58:57.346Z,11.69
2022-10-13T20:01:24.116Z,11.65
2022-10-13T20:03:52.876Z,11.64
2022-10-13T20:06:20.701Z,11.60
2022-10-13T20:08:48.116Z,11.49
2022-10-13T20:11:23.038Z,11.42
2022-10-13T20:13:52.192Z,11.39
2022-10-13T20:16:22.297Z,11.38
2022-10-13T20:18:55.344Z,11.45
2022-10-13T20:21:23.584Z,11.55
2022-10-13T20:23:51.156Z,11.57
2022-10-13T20:26:19.613Z,11.56
2022-10-13T20:28:49.271Z,11.56
2022-10-13T20:31:18.498Z,11.56
2022-10-13T20:33:46.500Z,11.51
2022-10-13T20:36:15.673Z,11.46
2022-10-13T20:38:42.373Z,11.43
2022-10-13T20:41:17.676Z,11.41
2022-10-13T20:43:45.377Z,11.40
2022-10-13T20:46:12.054Z,11.39
2022-10-13T20:49:08.808Z,11.36
2022-10-13T20:51:26.663Z,11.33
2022-10-13T20:53:53.763Z,11.32
2022-10-13T20:56:24.934Z,11.32
2022-10-13T20:58:51.870Z,11.38
2022-10-13T21:01:20.625Z,11.45
2022-10-13T21:03:51.681Z,11.54
2022-10-13T21:06:17.997Z,11.62
2022-10-13T21:08:45.139Z,11.65
2022-10-13T21:11:14.597Z,11.67
2022-10-13T21:13:43.677Z,11.67
2022-10-13T21:16:28.492Z,11.68
2022-10-13T21:18:56.750Z,11.69
2022-10-13T21:21:29.614Z,11.70
2022-10-13T21:23:59.216Z,11.69
2022-10-13T21:26:27.532Z,11.66
2022-10-13T21:28:54.326Z,11.60
2022-10-13T21:31:22.074Z,11.56
2022-10-13T21:33:49.321Z,11.54
2022-10-13T21:36:21.972Z,11.50
2022-10-13T21:38:52.678Z,11.45
2022-10-13T21:41:19.494Z,11.38
2022-10-13T21:43:46.703Z,11.34
2022-10-13T21:46:16.614Z,11.31
2022-10-13T21:48:43.961Z,11.31
2022-10-13T21:51:18.948Z,11.32
2022-10-13T21:53:50.075Z,11.33
2022-10-13T21:56:17.171Z,11.33
2022-10-13T21:58:44.341Z,11.32
2022-10-13T22:01:11.168Z,11.31
2022-10-13T22:03:37.771Z,11.26
2022-10-13T22:06:10.661Z,11.21
2022-10-13T22:08:40.384Z,11.19
2022-10-13T22:11:14.822Z,11.20
2022-10-13T22:13:41.513Z,11.22
2022-10-13T22:16:09.626Z,11.22
2022-10-13T22:18:41.496Z,11.24
2022-10-13T22:21:11.818Z,11.22
2022-10-13T22:23:38.540Z,11.22
2022-10-13T22:26:05.000Z,11.21
2022-10-13T22:28:36.809Z,11.23
2022-10-13T22:31:05.450Z,11.26
2022-10-13T22:33:33.697Z,11.30
2022-10-13T22:36:00.160Z,11.32
2022-10-13T22:38:26.526Z,11.34
2022-10-13T22:40:53.625Z,11.34
2022-10-13T22:43:20.249Z,11.34
2022-10-13T22:45:51.181Z,11.32
2022-10-13T22:48:17.638Z,11.33
2022-10-13T22:50:44.751Z,11.37
2022-10-13T22:53:11.233Z,11.42
2022-10-13T22:55:39.053Z,11.45
2022-10-13T22:58:05.447Z,11.45
2022-10-13T23:00:34.408Z,11.44
2022-10-13T23:03:01.058Z,11.45
2022-10-13T23:05:27.619Z,11.48
2022-10-13T23:07:54.385Z,11.46
2022-10-13T23:10:22.178Z,11.44
2022-10-13T23:12:48.916Z,11.41
2022-10-13T23:15:15.606Z,11.39
2022-10-13T23:17:42.395Z,11.38
2022-10-13T23:20:09.006Z,11.41
2022-10-13T23:22:35.974Z,11.47
2022-10-13T23:25:02.383Z,11.53
2022-10-13T23:27:28.858Z,11.53
2022-10-13T23:29:55.287Z,11.48
2022-10-13T23:32:24.810Z,11.45
2022-10-13T23:34:51.339Z,11.44
2022-10-13T23:37:19.674Z,11.43
2022-10-13T23:39:46.435Z,11.45
2022-10-13T23:42:13.012Z,11.47
2022-10-13T23:44:39.495Z,11.42
2022-10-13T23:47:05.884Z,11.38
2022-10-13T23:49:32.386Z,11.40
2022-10-13T23:51:58.704Z,11.44
2022-10-13T23:54:25.320Z,11.44
2022-10-13T23:56:51.665Z,11.45
2022-10-13T23:59:18.629Z,11.45
